To NAV CANADA Home Page Login to a new session Search on AWWS site Feedback and Comments Disclaimer Vers la page française équivalente Tips FAQ What's new on the site To the Forecasts and Observations / NOTAM section To "File a Flight Plan" website Publications and other links Update of the User's profile FIC Telephone Numbers My Weather Data Folder Route Weather Data Regional Weather Data Local Weather Data To the Forecasts and Observations / NOTAM section
Request Generated 08/22/2017 at 03:21:41 UTC . Weather information available at that time is displayed.

METAR/TAF

OTTAWA/MACDONALD-CARTIER INTL/ON    

METAR CYOW 220300Z 21004KT 15SM FEW055 FEW250 21/20 A2999 RMK SC1CI1
SC TR SLP155 DENSITY ALT 1200FT=
METAR CYOW 220200Z 20006KT 15SM FEW050 22/20 A2999 RMK SC1 SLP155
DENSITY ALT 1300FT=
METAR CYOW 220100Z 20007KT 15SM FEW050 FEW250 23/20 A2998 RMK SC1CI1
CI TR DIST OCNL LTNG NNE SLP153 DENSITY ALT 1400FT=

TAF CYOW 220238Z 2203/2224 21008KT P6SM FEW050
FM220900 18007KT P6SM FEW030 BKN180 PROB30 2209/2213 1/2SM FG
VV002
FM221400 19012G22KT P6SM BKN030
FM221600 20017G27KT 4SM SHRA OVC030 TEMPO 2216/2219 VRB25G40KT
1SM +TSRA BKN015 OVC025CB PROB30 2216/2218 VRB35G55KT 1/2SM
+TSGRRA BKN008 OVC020CB
FM221900 21015G25KT P6SM -SHRA BKN015 OVC060 PROB30 2219/2221
VRB15G30KT 4SM TSRA BKN010 OVC050CB
BECMG 2221/2223 24012KT
RMK NXT FCST BY 220600Z=
Your time UTC time
Weather data provided by Environment Canada and NAV CANADA